MAU218 FIMP-FMEE
Flight info
| Callsign | MAU218 |
|---|---|
| Flight time | 0h 30m |
| Altitude | 22000 |
| Route | SOBAT1 SOBAT SOBAT2R |
| Aircraft | A319/M-SDE3FGHIRWY/LB1 |
Departure
| Time | 2026-04-25 10:46 |
|---|---|
| Airport | Sir Seewoosagur Ramgoolam International Airport (FIMP) |
Arrival
| Time | 2026-04-25 11:16 |
|---|---|
| Airport | Roland Garros Airport (FMEE) |
| Time | Latitude | Longitude | Altitude | Speed | Heading |
|---|---|---|---|---|---|
| 2026-04-25 10:32 | -20.43105 | 57.67700 | 199 ft | 0 kts | 207° |
| 2026-04-25 10:40 | -20.43102 | 57.67702 | 186 ft | 3 kts | 207° |
| 2026-04-25 10:40 | -20.43078 | 57.67715 | 194 ft | 4 kts | 207° |
| 2026-04-25 10:40 | -20.43062 | 57.67724 | 198 ft | 4 kts | 207° |
| 2026-04-25 10:41 | -20.43035 | 57.67739 | 203 ft | 4 kts | 221° |
| 2026-04-25 10:41 | -20.43023 | 57.67760 | 200 ft | 4 kts | 274° |
| 2026-04-25 10:41 | -20.43028 | 57.67781 | 196 ft | 0 kts | 297° |
| 2026-04-25 10:43 | -20.43021 | 57.67766 | 198 ft | 6 kts | 297° |
| 2026-04-25 10:43 | -20.43000 | 57.67722 | 198 ft | 7 kts | 297° |
| 2026-04-25 10:43 | -20.42974 | 57.67671 | 197 ft | 10 kts | 305° |
| 2026-04-25 10:44 | -20.42906 | 57.67624 | 186 ft | 13 kts | 332° |
| 2026-04-25 10:44 | -20.42831 | 57.67571 | 192 ft | 13 kts | 320° |
| 2026-04-25 10:44 | -20.42758 | 57.67513 | 193 ft | 13 kts | 322° |
| 2026-04-25 10:44 | -20.42683 | 57.67473 | 202 ft | 12 kts | 347° |
| 2026-04-25 10:45 | -20.42628 | 57.67500 | 197 ft | 9 kts | 75° |
| 2026-04-25 10:45 | -20.42673 | 57.67621 | 189 ft | 41 kts | 117° |
| 2026-04-25 10:45 | -20.42913 | 57.68122 | 183 ft | 108 kts | 117° |
| 2026-04-25 10:45 | -20.43343 | 57.69011 | 177 ft | 159 kts | 119° |
| 2026-04-25 10:46 | -20.43846 | 57.70058 | 756 ft | 158 kts | 118° |
| 2026-04-25 10:46 | -20.44346 | 57.71106 | 1423 ft | 159 kts | 116° |
| 2026-04-25 10:46 | -20.44850 | 57.72163 | 2040 ft | 164 kts | 115° |
| 2026-04-25 10:46 | -20.45486 | 57.73266 | 2349 ft | 189 kts | 133° |
| 2026-04-25 10:47 | -20.46800 | 57.73788 | 2618 ft | 224 kts | 176° |
| 2026-04-25 10:47 | -20.48402 | 57.73247 | 2942 ft | 262 kts | 206° |
| 2026-04-25 10:47 | -20.49701 | 57.71803 | 3615 ft | 282 kts | 240° |
| 2026-04-25 10:47 | -20.50241 | 57.69729 | 4485 ft | 290 kts | 258° |
| 2026-04-25 10:48 | -20.50577 | 57.67626 | 5386 ft | 293 kts | 259° |
| 2026-04-25 10:48 | -20.50902 | 57.65472 | 6282 ft | 296 kts | 259° |
| 2026-04-25 10:48 | -20.51231 | 57.63264 | 7137 ft | 299 kts | 259° |
| 2026-04-25 10:48 | -20.51559 | 57.61065 | 7983 ft | 301 kts | 259° |
| 2026-04-25 10:49 | -20.51894 | 57.58844 | 8790 ft | 306 kts | 259° |
| 2026-04-25 10:49 | -20.52121 | 57.57360 | 9352 ft | 308 kts | 259° |
| 2026-04-25 10:49 | -20.52596 | 57.54303 | 10176 ft | 322 kts | 259° |
| 2026-04-25 10:49 | -20.52978 | 57.51860 | 10406 ft | 345 kts | 259° |
| 2026-04-25 10:50 | -20.53380 | 57.49290 | 10925 ft | 354 kts | 259° |
| 2026-04-25 10:50 | -20.53785 | 57.46673 | 11544 ft | 361 kts | 259° |
| 2026-04-25 10:50 | -20.54058 | 57.44887 | 12016 ft | 363 kts | 259° |
| 2026-04-25 10:50 | -20.54468 | 57.42201 | 12651 ft | 368 kts | 260° |
| 2026-04-25 10:51 | -20.54881 | 57.39505 | 13364 ft | 371 kts | 260° |
| 2026-04-25 10:51 | -20.55301 | 57.36753 | 14087 ft | 370 kts | 260° |
| 2026-04-25 10:51 | -20.55717 | 57.34026 | 14671 ft | 374 kts | 260° |
| 2026-04-25 10:51 | -20.56139 | 57.31274 | 15239 ft | 378 kts | 259° |
| 2026-04-25 10:52 | -20.56563 | 57.28498 | 15848 ft | 380 kts | 260° |
| 2026-04-25 10:52 | -20.56988 | 57.25705 | 16431 ft | 383 kts | 260° |
| 2026-04-25 10:52 | -20.57415 | 57.22892 | 17000 ft | 386 kts | 259° |
| 2026-04-25 10:52 | -20.57848 | 57.20053 | 17537 ft | 390 kts | 259° |
| 2026-04-25 10:53 | -20.58290 | 57.17183 | 18079 ft | 393 kts | 259° |
| 2026-04-25 10:53 | -20.58731 | 57.14299 | 18619 ft | 395 kts | 260° |
| 2026-04-25 10:53 | -20.59173 | 57.11396 | 19127 ft | 397 kts | 260° |
| 2026-04-25 10:53 | -20.59617 | 57.08477 | 19640 ft | 399 kts | 259° |
| 2026-04-25 10:54 | -20.60063 | 57.05551 | 20161 ft | 401 kts | 259° |
| 2026-04-25 10:54 | -20.60366 | 57.03564 | 20522 ft | 402 kts | 259° |
| 2026-04-25 10:54 | -20.60960 | 56.99657 | 21224 ft | 404 kts | 259° |
| 2026-04-25 10:54 | -20.61414 | 56.96653 | 21720 ft | 406 kts | 259° |
| 2026-04-25 10:55 | -20.61860 | 56.93672 | 21888 ft | 406 kts | 258° |
| 2026-04-25 10:55 | -20.62300 | 56.90725 | 21928 ft | 401 kts | 259° |
| 2026-04-25 10:55 | -20.62736 | 56.87795 | 21928 ft | 399 kts | 258° |
| 2026-04-25 10:55 | -20.63174 | 56.84872 | 21929 ft | 398 kts | 258° |
| 2026-04-25 10:56 | -20.63612 | 56.81956 | 21925 ft | 399 kts | 257° |
| 2026-04-25 10:56 | -20.64051 | 56.79036 | 21923 ft | 399 kts | 258° |
| 2026-04-25 10:56 | -20.64491 | 56.76105 | 21921 ft | 399 kts | 258° |
| 2026-04-25 10:56 | -20.64929 | 56.73185 | 21929 ft | 399 kts | 258° |
| 2026-04-25 10:57 | -20.65367 | 56.70257 | 21929 ft | 399 kts | 258° |
| 2026-04-25 10:57 | -20.65803 | 56.67334 | 21927 ft | 399 kts | 258° |
| 2026-04-25 10:57 | -20.66239 | 56.64402 | 21930 ft | 400 kts | 258° |
| 2026-04-25 10:57 | -20.66675 | 56.61476 | 21933 ft | 400 kts | 258° |
| 2026-04-25 10:58 | -20.67111 | 56.58544 | 21934 ft | 400 kts | 259° |
| 2026-04-25 10:58 | -20.67545 | 56.55616 | 21932 ft | 400 kts | 258° |
| 2026-04-25 10:58 | -20.67980 | 56.52685 | 21933 ft | 400 kts | 259° |
| 2026-04-25 10:58 | -20.68414 | 56.49750 | 21938 ft | 400 kts | 258° |
| 2026-04-25 10:59 | -20.68845 | 56.46819 | 21939 ft | 400 kts | 259° |
| 2026-04-25 10:59 | -20.69277 | 56.43884 | 21939 ft | 400 kts | 259° |
| 2026-04-25 10:59 | -20.69710 | 56.40949 | 21939 ft | 400 kts | 259° |
| 2026-04-25 10:59 | -20.70142 | 56.38022 | 21942 ft | 399 kts | 259° |
| 2026-04-25 11:00 | -20.70574 | 56.35091 | 21943 ft | 399 kts | 259° |
| 2026-04-25 11:00 | -20.71000 | 56.32168 | 21943 ft | 399 kts | 259° |
| 2026-04-25 11:00 | -20.71428 | 56.29241 | 21936 ft | 399 kts | 258° |
| 2026-04-25 11:00 | -20.71788 | 56.26262 | 21931 ft | 401 kts | 265° |
| 2026-04-25 11:01 | -20.71763 | 56.23279 | 21932 ft | 402 kts | 269° |
| 2026-04-25 11:01 | -20.71688 | 56.20276 | 21931 ft | 407 kts | 269° |
| 2026-04-25 11:01 | -20.71611 | 56.17248 | 21748 ft | 408 kts | 269° |
| 2026-04-25 11:01 | -20.71536 | 56.14222 | 21183 ft | 408 kts | 268° |
| 2026-04-25 11:02 | -20.71466 | 56.11198 | 20652 ft | 406 kts | 269° |
| 2026-04-25 11:02 | -20.71395 | 56.08190 | 20166 ft | 404 kts | 269° |
| 2026-04-25 11:02 | -20.71324 | 56.05191 | 19684 ft | 402 kts | 270° |
| 2026-04-25 11:02 | -20.71253 | 56.02215 | 19164 ft | 399 kts | 270° |
| 2026-04-25 11:03 | -20.71182 | 55.99248 | 18605 ft | 398 kts | 270° |
| 2026-04-25 11:03 | -20.71108 | 55.96295 | 18013 ft | 399 kts | 270° |
| 2026-04-25 11:03 | -20.71033 | 55.93342 | 17522 ft | 395 kts | 271° |
| 2026-04-25 11:03 | -20.70958 | 55.90421 | 17010 ft | 392 kts | 271° |
| 2026-04-25 11:04 | -20.70886 | 55.87528 | 16579 ft | 388 kts | 271° |
| 2026-04-25 11:04 | -20.70813 | 55.84651 | 16033 ft | 387 kts | 270° |
| 2026-04-25 11:04 | -20.70741 | 55.81786 | 15530 ft | 385 kts | 271° |
| 2026-04-25 11:04 | -20.70693 | 55.79858 | 15229 ft | 383 kts | 270° |
| 2026-04-25 11:05 | -20.70596 | 55.76107 | 14599 ft | 380 kts | 270° |
| 2026-04-25 11:05 | -20.70521 | 55.73297 | 14187 ft | 376 kts | 271° |
| 2026-04-25 11:05 | -20.70445 | 55.70519 | 13749 ft | 374 kts | 271° |
| 2026-04-25 11:05 | -20.70371 | 55.67762 | 13064 ft | 369 kts | 271° |
| 2026-04-25 11:06 | -20.70299 | 55.64993 | 12196 ft | 369 kts | 270° |
| 2026-04-25 11:06 | -20.70223 | 55.62253 | 11732 ft | 366 kts | 271° |
| 2026-04-25 11:06 | -20.70131 | 55.59561 | 11283 ft | 362 kts | 271° |
| 2026-04-25 11:06 | -20.70029 | 55.56882 | 10851 ft | 358 kts | 271° |
| 2026-04-25 11:07 | -20.69922 | 55.54232 | 10408 ft | 355 kts | 271° |
| 2026-04-25 11:07 | -20.69815 | 55.51634 | 10232 ft | 343 kts | 272° |
| 2026-04-25 11:07 | -20.69715 | 55.49138 | 10114 ft | 331 kts | 271° |
| 2026-04-25 11:07 | -20.69620 | 55.46718 | 9932 ft | 322 kts | 271° |
| 2026-04-25 11:08 | -20.69530 | 55.44347 | 9633 ft | 317 kts | 271° |
| 2026-04-25 11:08 | -20.69442 | 55.42001 | 9235 ft | 316 kts | 271° |
| 2026-04-25 11:08 | -20.69352 | 55.39670 | 8906 ft | 312 kts | 271° |
| 2026-04-25 11:08 | -20.69263 | 55.37370 | 8561 ft | 307 kts | 270° |
| 2026-04-25 11:09 | -20.69178 | 55.35098 | 7937 ft | 306 kts | 270° |
| 2026-04-25 11:09 | -20.69096 | 55.32897 | 7746 ft | 287 kts | 270° |
| 2026-04-25 11:09 | -20.69382 | 55.30876 | 7431 ft | 268 kts | 241° |
| 2026-04-25 11:09 | -20.70489 | 55.29359 | 7120 ft | 255 kts | 213° |
| 2026-04-25 11:10 | -20.72049 | 55.28620 | 6725 ft | 242 kts | 186° |
| 2026-04-25 11:10 | -20.73177 | 55.28453 | 6318 ft | 242 kts | 183° |
| 2026-04-25 11:10 | -20.75408 | 55.28186 | 5473 ft | 245 kts | 181° |
| 2026-04-25 11:10 | -20.77098 | 55.28208 | 4855 ft | 240 kts | 159° |
| 2026-04-25 11:11 | -20.78421 | 55.29231 | 4290 ft | 233 kts | 124° |
| 2026-04-25 11:11 | -20.79210 | 55.30706 | 3938 ft | 224 kts | 116° |
| 2026-04-25 11:11 | -20.79890 | 55.32190 | 3644 ft | 221 kts | 116° |
| 2026-04-25 11:11 | -20.80569 | 55.33653 | 3359 ft | 218 kts | 117° |
| 2026-04-25 11:12 | -20.81243 | 55.35093 | 3080 ft | 215 kts | 116° |
| 2026-04-25 11:12 | -20.81909 | 55.36514 | 2800 ft | 213 kts | 116° |
| 2026-04-25 11:12 | -20.82570 | 55.37921 | 2533 ft | 210 kts | 116° |
| 2026-04-25 11:12 | -20.83220 | 55.39308 | 2265 ft | 208 kts | 116° |
| 2026-04-25 11:13 | -20.83864 | 55.40682 | 1994 ft | 206 kts | 116° |
| 2026-04-25 11:13 | -20.84505 | 55.42049 | 1726 ft | 202 kts | 116° |
| 2026-04-25 11:13 | -20.85110 | 55.43340 | 1487 ft | 185 kts | 116° |
| 2026-04-25 11:13 | -20.85659 | 55.44513 | 1242 ft | 167 kts | 116° |
| 2026-04-25 11:14 | -20.86152 | 55.45565 | 1049 ft | 148 kts | 116° |
| 2026-04-25 11:14 | -20.86592 | 55.46504 | 861 ft | 134 kts | 116° |
| 2026-04-25 11:14 | -20.86990 | 55.47366 | 692 ft | 129 kts | 115° |
| 2026-04-25 11:14 | -20.87395 | 55.48201 | 526 ft | 123 kts | 115° |
| 2026-04-25 11:15 | -20.87784 | 55.49033 | 416 ft | 125 kts | 114° |
| 2026-04-25 11:15 | -20.88168 | 55.49872 | 239 ft | 127 kts | 114° |
| 2026-04-25 11:15 | -20.88560 | 55.50711 | 56 ft | 124 kts | 115° |
| 2026-04-25 11:15 | -20.88886 | 55.51413 | 59 ft | 86 kts | 116° |
| 2026-04-25 11:16 | -20.89183 | 55.52044 | 68 ft | 27 kts | 116° |
| 2026-04-25 11:16 | -20.89256 | 55.52195 | 67 ft | 21 kts | 129° |
| 2026-04-25 11:16 | -20.89365 | 55.52190 | 82 ft | 11 kts | 203° |
| 2026-04-25 11:17 | -20.89410 | 55.52140 | 87 ft | 16 kts | 270° |
| 2026-04-25 11:17 | -20.89353 | 55.52015 | 88 ft | 19 kts | 296° |
| 2026-04-25 11:17 | -20.89292 | 55.51884 | 84 ft | 20 kts | 298° |
| 2026-04-25 11:17 | -20.89229 | 55.51748 | 84 ft | 21 kts | 295° |
| 2026-04-25 11:18 | -20.89164 | 55.51609 | 82 ft | 21 kts | 296° |
| 2026-04-25 11:18 | -20.89094 | 55.51459 | 70 ft | 22 kts | 296° |
| 2026-04-25 11:18 | -20.89054 | 55.51336 | 70 ft | 15 kts | 252° |
| 2026-04-25 11:18 | -20.89095 | 55.51302 | 75 ft | 10 kts | 211° |
| 2026-04-25 11:19 | -20.89111 | 55.51292 | 75 ft | 0 kts | 210° |